createdAt,value
2023-04-16T00:01:42.226Z,12.43
2023-04-16T00:04:11.636Z,11.98
2023-04-16T00:06:39.563Z,12.50
2023-04-16T00:09:07.946Z,12.75
2023-04-16T00:11:36.067Z,11.95
2023-04-16T00:14:04.019Z,12.30
2023-04-16T00:16:32.000Z,11.80
2023-04-16T00:18:59.920Z,12.27
2023-04-16T00:21:29.273Z,12.23
2023-04-16T00:23:57.160Z,12.52
2023-04-16T00:26:25.092Z,12.27
2023-04-16T00:28:53.670Z,13.85
2023-04-16T00:31:28.319Z,12.40
2023-04-16T00:33:57.789Z,12.52
2023-04-16T00:36:27.115Z,13.25
2023-04-16T00:38:57.194Z,13.13
2023-04-16T00:41:26.272Z,13.27
2023-04-16T00:43:54.254Z,13.00
2023-04-16T00:46:23.218Z,12.85
2023-04-16T00:48:52.686Z,12.27
2023-04-16T00:51:21.363Z,12.52
2023-04-16T00:53:49.406Z,12.90
2023-04-16T00:56:20.524Z,12.98
2023-04-16T00:58:49.747Z,12.50
2023-04-16T01:01:17.857Z,12.88
2023-04-16T01:03:47.329Z,12.98
2023-04-16T01:06:15.707Z,12.48
2023-04-16T01:08:43.653Z,12.45
2023-04-16T01:11:12.137Z,12.55
2023-04-16T01:13:41.426Z,12.75
2023-04-16T01:16:10.092Z,13.30
2023-04-16T01:18:38.869Z,12.88
2023-04-16T01:21:08.402Z,14.40
2023-04-16T01:23:36.467Z,12.05
2023-04-16T01:26:07.766Z,13.63
2023-04-16T01:28:36.131Z,12.80
2023-04-16T01:31:04.275Z,12.68
2023-04-16T01:33:55.305Z,14.02
2023-04-16T01:36:25.216Z,14.48
2023-04-16T01:38:53.236Z,13.13
2023-04-16T01:41:21.221Z,14.27
2023-04-16T01:43:49.199Z,13.82
2023-04-16T01:46:25.947Z,13.65
2023-04-16T01:48:55.352Z,13.95
2023-04-16T01:51:23.475Z,13.52
2023-04-16T01:53:53.373Z,13.52
2023-04-16T01:56:21.450Z,14.43
2023-04-16T01:58:49.527Z,13.30
2023-04-16T02:01:19.286Z,13.60
2023-04-16T02:03:48.954Z,13.48
2023-04-16T02:06:17.060Z,14.10
2023-04-16T02:08:44.980Z,13.45
2023-04-16T02:11:16.336Z,12.93
2023-04-16T02:13:44.817Z,12.82
2023-04-16T02:16:13.628Z,13.80
2023-04-16T02:18:49.816Z,14.43
2023-04-16T02:21:20.282Z,13.15
2023-04-16T02:23:51.686Z,13.77
2023-04-16T02:26:26.536Z,13.90
2023-04-16T02:28:56.527Z,13.57
2023-04-16T02:31:30.517Z,14.40
2023-04-16T02:33:59.212Z,14.05
2023-04-16T02:36:27.487Z,13.75
2023-04-16T02:38:56.852Z,14.02
2023-04-16T02:41:26.552Z,14.90
2023-04-16T02:43:54.470Z,13.95
2023-04-16T02:46:22.748Z,15.13
2023-04-16T02:48:51.278Z,13.63
2023-04-16T02:51:19.238Z,13.63
2023-04-16T02:53:47.077Z,14.98
2023-04-16T02:56:15.548Z,15.88
2023-04-16T02:58:44.827Z,14.70
2023-04-16T03:01:12.867Z,15.30
2023-04-16T03:03:41.008Z,14.60
2023-04-16T03:06:08.971Z,15.38
2023-04-16T03:08:36.939Z,15.82
2023-04-16T03:11:05.013Z,16.20
2023-04-16T03:13:32.846Z,15.13
2023-04-16T03:16:02.444Z,15.77
2023-04-16T03:18:30.477Z,15.45
2023-04-16T03:20:58.354Z,15.88
2023-04-16T03:23:26.455Z,15.27
2023-04-16T03:25:54.380Z,16.40
2023-04-16T03:28:22.469Z,15.27
2023-04-16T03:30:53.565Z,15.75
2023-04-16T03:33:23.039Z,15.43
2023-04-16T03:36:01.392Z,15.13
2023-04-16T03:38:31.811Z,15.40
2023-04-16T03:41:00.658Z,14.73
2023-04-16T03:43:31.681Z,13.48
2023-04-16T03:45:59.818Z,14.43
2023-04-16T03:48:29.168Z,13.75
2023-04-16T03:50:57.203Z,14.45
2023-04-16T03:53:25.325Z,12.68
2023-04-16T03:55:53.801Z,14.98
2023-04-16T03:58:22.856Z,15.05
2023-04-16T04:00:54.248Z,14.45
2023-04-16T04:03:22.605Z,14.60
2023-04-16T04:05:52.785Z,15.55
2023-04-16T04:08:31.507Z,15.05
2023-04-16T04:10:59.688Z,15.43
2023-04-16T04:13:27.914Z,15.10
2023-04-16T04:15:56.841Z,15.48
2023-04-16T04:18:25.029Z,13.65
2023-04-16T04:20:54.779Z,16.20
2023-04-16T04:23:27.028Z,15.07
2023-04-16T04:25:55.045Z,16.02
2023-04-16T04:28:23.607Z,15.65
2023-04-16T04:30:51.873Z,14.85
2023-04-16T04:33:20.066Z,15.13
2023-04-16T04:35:48.434Z,15.07
2023-04-16T04:38:19.919Z,15.93
2023-04-16T04:40:48.611Z,15.07
2023-04-16T04:43:17.746Z,13.23
2023-04-16T04:45:46.032Z,15.35
2023-04-16T04:48:14.224Z,14.43
2023-04-16T04:50:42.380Z,14.38
2023-04-16T04:53:11.231Z,16.05
2023-04-16T04:55:41.568Z,13.95
2023-04-16T04:58:10.495Z,14.90
2023-04-16T05:00:40.336Z,15.05
2023-04-16T05:03:11.481Z,14.68
2023-04-16T05:05:39.549Z,15.63
2023-04-16T05:08:07.575Z,14.13
2023-04-16T05:10:35.530Z,14.80
2023-04-16T05:13:04.914Z,14.95
2023-04-16T05:15:32.818Z,15.05
2023-04-16T05:18:00.771Z,15.65
2023-04-16T05:20:28.764Z,14.98
2023-04-16T05:22:56.644Z,15.77
2023-04-16T05:25:24.831Z,15.93
2023-04-16T05:27:52.766Z,14.55
2023-04-16T05:30:22.002Z,15.88
2023-04-16T05:32:49.939Z,15.15
2023-04-16T05:35:17.961Z,16.85
2023-04-16T05:37:45.905Z,15.98
2023-04-16T05:40:15.071Z,15.88
2023-04-16T05:42:43.023Z,15.07
2023-04-16T05:45:11.788Z,15.38
2023-04-16T05:47:41.342Z,16.90
2023-04-16T05:50:09.806Z,15.57
2023-04-16T05:52:37.800Z,14.60
2023-04-16T05:55:06.263Z,14.60
2023-04-16T05:57:34.313Z,14.32
2023-04-16T06:00:02.369Z,15.57
2023-04-16T06:02:41.435Z,14.80
2023-04-16T06:05:09.832Z,13.90
2023-04-16T06:07:37.874Z,14.23
2023-04-16T06:10:06.551Z,14.48
2023-04-16T06:12:34.479Z,14.00
2023-04-16T06:15:03.608Z,14.23
2023-04-16T06:17:31.524Z,13.55
2023-04-16T06:20:00.975Z,12.73
2023-04-16T06:22:28.914Z,13.70
2023-04-16T06:24:56.900Z,13.93
2023-04-16T06:27:24.809Z,13.70
2023-04-16T06:29:52.851Z,14.15
2023-04-16T06:32:20.814Z,13.30
2023-04-16T06:34:48.745Z,12.90
2023-04-16T06:37:17.965Z,12.10
2023-04-16T06:39:45.845Z,13.43
2023-04-16T06:42:13.781Z,12.48
2023-04-16T06:44:41.661Z,11.77
2023-04-16T06:47:09.723Z,11.68
2023-04-16T06:49:38.988Z,10.75
2023-04-16T06:52:07.043Z,12.35
2023-04-16T06:54:36.348Z,11.00
2023-04-16T06:57:04.237Z,11.38
2023-04-16T06:59:32.669Z,11.45
2023-04-16T07:02:00.826Z,11.20
2023-04-16T07:04:28.982Z,11.50
2023-04-16T07:06:57.675Z,11.15
2023-04-16T07:09:26.770Z,11.43
2023-04-16T07:11:56.236Z,10.55
2023-04-16T07:14:24.261Z,11.07
2023-04-16T07:16:52.202Z,10.38
2023-04-16T07:19:20.097Z,10.07
2023-04-16T07:21:48.001Z,9.98
2023-04-16T07:24:15.903Z,10.60
2023-04-16T07:26:43.799Z,9.65
2023-04-16T07:29:13.594Z,9.98
2023-04-16T07:31:41.635Z,9.48
2023-04-16T07:34:09.645Z,10.10
2023-04-16T07:36:39.070Z,10.57
2023-04-16T07:39:06.977Z,9.43
2023-04-16T07:41:35.260Z,10.65
2023-04-16T07:44:03.288Z,10.18
2023-04-16T07:46:45.525Z,10.25
2023-04-16T07:49:15.213Z,10.75
2023-04-16T07:51:43.687Z,10.07
2023-04-16T07:54:11.955Z,10.38
2023-04-16T07:56:40.125Z,10.25
2023-04-16T07:59:19.140Z,10.02
2023-04-16T08:01:51.456Z,9.65
2023-04-16T08:04:25.078Z,9.65
2023-04-16T08:06:53.830Z,10.45
2023-04-16T08:09:22.114Z,10.10
2023-04-16T08:11:50.352Z,9.75
2023-04-16T08:14:18.211Z,9.27
2023-04-16T08:16:46.170Z,9.50
2023-04-16T08:19:15.458Z,8.95
2023-04-16T08:21:43.387Z,9.10
2023-04-16T08:24:11.254Z,9.35
2023-04-16T08:26:39.209Z,9.18
2023-04-16T08:29:07.151Z,9.07
2023-04-16T08:31:35.115Z,8.73
2023-04-16T08:34:03.117Z,9.40
2023-04-16T08:36:32.465Z,8.43
2023-04-16T08:39:00.416Z,8.70
2023-04-16T08:41:31.294Z,8.32
2023-04-16T08:44:01.374Z,8.35
2023-04-16T08:46:30.836Z,8.75
2023-04-16T08:49:00.327Z,8.57
2023-04-16T08:51:29.710Z,8.25
2023-04-16T08:54:01.512Z,8.07
2023-04-16T08:56:32.526Z,7.82
2023-04-16T08:59:03.166Z,8.45
2023-04-16T09:01:31.587Z,8.85
2023-04-16T09:04:01.561Z,8.02
2023-04-16T09:06:29.861Z,7.65
2023-04-16T09:09:01.536Z,8.00
2023-04-16T09:11:29.493Z,6.97
2023-04-16T09:13:57.334Z,8.35
2023-04-16T09:16:26.452Z,7.85
2023-04-16T09:18:54.430Z,8.07
2023-04-16T09:21:24.206Z,7.65
2023-04-16T09:23:54.158Z,7.20
2023-04-16T09:26:25.446Z,7.75
2023-04-16T09:28:53.435Z,7.35
2023-04-16T09:31:21.394Z,7.60
2023-04-16T09:34:02.546Z,7.60
2023-04-16T09:36:31.323Z,7.40
2023-04-16T09:39:00.144Z,7.05
2023-04-16T09:41:30.843Z,7.05
2023-04-16T09:44:00.526Z,6.95
2023-04-16T09:46:31.436Z,7.15
2023-04-16T09:48:59.571Z,6.72
2023-04-16T09:51:28.416Z,6.70
2023-04-16T09:53:58.059Z,6.75
2023-04-16T09:56:27.052Z,7.03
2023-04-16T09:59:00.989Z,6.82
2023-04-16T10:01:29.228Z,6.97
2023-04-16T10:03:57.380Z,6.40
2023-04-16T10:06:27.223Z,6.10
2023-04-16T10:08:57.325Z,6.40
2023-04-16T10:11:25.945Z,7.00
2023-04-16T10:13:53.857Z,6.53
2023-04-16T10:16:23.370Z,6.82
2023-04-16T10:18:51.558Z,7.03
2023-04-16T10:21:20.022Z,6.40
2023-04-16T10:23:49.680Z,6.97
2023-04-16T10:26:19.307Z,4.63
2023-04-16T10:28:47.934Z,5.47
2023-04-16T10:31:17.510Z,6.32
2023-04-16T10:33:47.115Z,6.38
2023-04-16T10:36:16.237Z,6.18
2023-04-16T10:38:47.545Z,5.97
2023-04-16T10:41:15.620Z,6.65
2023-04-16T10:43:45.540Z,6.60
2023-04-16T10:46:21.630Z,6.15
2023-04-16T10:48:52.217Z,6.55
2023-04-16T10:51:31.576Z,6.53
2023-04-16T10:54:04.533Z,5.47
2023-04-16T10:59:01.435Z,6.05
2023-04-16T11:01:34.016Z,6.65
2023-04-16T11:04:38.907Z,5.50
2023-04-16T11:07:08.957Z,6.82
2023-04-16T11:09:54.898Z,7.18
2023-04-16T11:12:27.583Z,6.05
2023-04-16T11:15:00.432Z,5.90
2023-04-16T11:17:35.814Z,5.40
2023-04-16T11:20:17.488Z,6.57
2023-04-16T11:22:49.224Z,6.25
2023-04-16T11:25:21.813Z,6.32
2023-04-16T11:27:49.992Z,7.47
2023-04-16T11:30:19.219Z,6.65
2023-04-16T11:32:47.291Z,6.10
2023-04-16T11:35:18.403Z,6.00
2023-04-16T11:37:48.580Z,6.88
2023-04-16T11:40:19.378Z,6.47
2023-04-16T11:42:47.990Z,5.32
2023-04-16T11:45:21.422Z,6.15
2023-04-16T11:47:52.268Z,6.10
2023-04-16T11:50:23.952Z,5.93
2023-04-16T11:52:53.404Z,6.68
2023-04-16T11:55:22.043Z,6.20
2023-04-16T11:57:51.015Z,6.45
2023-04-16T12:00:23.093Z,6.38
2023-04-16T12:02:55.658Z,6.85
2023-04-16T12:05:33.522Z,6.30
2023-04-16T12:08:03.328Z,6.28
2023-04-16T12:10:36.024Z,6.22
2023-04-16T12:13:13.909Z,6.60
2023-04-16T12:15:45.979Z,7.00
2023-04-16T12:18:14.199Z,6.20
2023-04-16T12:20:43.997Z,6.38
2023-04-16T12:23:13.817Z,6.20
2023-04-16T12:25:44.195Z,6.97
2023-04-16T12:28:12.456Z,6.07
2023-04-16T12:30:50.985Z,6.40
2023-04-16T12:33:21.245Z,5.90
2023-04-16T12:35:51.057Z,5.43
2023-04-16T12:38:19.103Z,5.63
2023-04-16T12:40:47.026Z,6.18
2023-04-16T12:43:15.110Z,5.97
2023-04-16T12:45:43.184Z,6.00
2023-04-16T12:48:11.205Z,6.45
2023-04-16T12:50:39.901Z,5.72
2023-04-16T12:53:09.295Z,5.75
2023-04-16T12:55:37.270Z,6.03
2023-04-16T12:58:05.184Z,5.65
2023-04-16T13:00:33.278Z,5.68
2023-04-16T13:03:01.253Z,5.60
2023-04-16T13:05:29.401Z,5.93
2023-04-16T13:07:57.307Z,5.18
2023-04-16T13:10:27.875Z,5.60
2023-04-16T13:12:56.032Z,5.18
2023-04-16T13:15:24.186Z,5.75
2023-04-16T13:17:52.145Z,6.38
2023-04-16T13:20:20.757Z,5.72
2023-04-16T13:22:50.036Z,5.45
2023-04-16T13:25:18.322Z,5.43
2023-04-16T13:27:47.664Z,5.25
2023-04-16T13:30:16.181Z,5.07
2023-04-16T13:32:44.271Z,4.55
2023-04-16T13:35:12.386Z,5.03
2023-04-16T13:37:40.516Z,5.85
2023-04-16T13:40:10.059Z,4.85
2023-04-16T13:42:38.204Z,5.20
2023-04-16T13:45:09.441Z,5.25
2023-04-16T13:47:37.570Z,5.72
2023-04-16T13:50:06.201Z,5.70
2023-04-16T13:52:34.184Z,5.82
2023-04-16T13:55:02.338Z,5.13
2023-04-16T13:57:31.176Z,5.30
2023-04-16T13:59:59.301Z,4.82
2023-04-16T14:02:29.317Z,4.95
2023-04-16T14:04:57.325Z,4.57
2023-04-16T14:07:27.154Z,4.97
2023-04-16T14:09:55.145Z,4.80
2023-04-16T14:12:23.150Z,5.20
2023-04-16T14:14:51.160Z,5.53
2023-04-16T14:17:19.287Z,5.68
2023-04-16T14:19:48.569Z,5.35
2023-04-16T14:22:17.856Z,5.20
2023-04-16T14:24:45.818Z,5.47
2023-04-16T14:27:13.768Z,5.13
2023-04-16T14:29:42.345Z,4.78
2023-04-16T14:32:10.372Z,5.43
2023-04-16T14:34:38.368Z,5.43
2023-04-16T14:37:07.717Z,5.30
2023-04-16T14:39:36.399Z,5.50
2023-04-16T14:42:04.375Z,4.93
2023-04-16T14:44:32.449Z,5.40
2023-04-16T14:47:00.501Z,5.70
2023-04-16T14:49:28.644Z,5.65
2023-04-16T14:51:56.674Z,5.18
2023-04-16T14:54:26.586Z,5.95
2023-04-16T14:56:54.745Z,5.53
2023-04-16T14:59:22.900Z,5.30
2023-04-16T15:01:51.469Z,5.57
2023-04-16T15:04:19.865Z,5.82
2023-04-16T15:06:48.109Z,4.93
2023-04-16T15:09:16.013Z,5.93
2023-04-16T15:11:45.225Z,6.05
2023-04-16T15:14:13.377Z,6.03
2023-04-16T15:16:41.446Z,6.00
2023-04-16T15:19:09.788Z,6.40
2023-04-16T15:21:37.885Z,6.40
2023-04-16T15:24:06.275Z,7.30
2023-04-16T15:26:34.578Z,7.32
2023-04-16T15:29:04.860Z,7.88
2023-04-16T15:31:33.304Z,6.78
2023-04-16T15:34:01.717Z,6.90
2023-04-16T15:36:29.996Z,6.90
2023-04-16T15:38:57.966Z,6.78
2023-04-16T15:41:26.231Z,7.47
2023-04-16T15:43:54.180Z,6.75
2023-04-16T15:46:23.471Z,6.97
2023-04-16T15:48:51.677Z,7.38
2023-04-16T15:51:19.567Z,7.32
2023-04-16T15:53:49.529Z,6.80
2023-04-16T15:56:17.603Z,7.60
2023-04-16T15:58:48.801Z,6.75
2023-04-16T16:01:19.754Z,7.78
2023-04-16T16:03:49.380Z,6.93
2023-04-16T16:06:17.979Z,6.28
2023-04-16T16:08:45.952Z,6.50
2023-04-16T16:11:13.990Z,6.55
2023-04-16T16:13:42.085Z,6.97
2023-04-16T16:16:10.099Z,6.82
2023-04-16T16:18:38.078Z,6.55
2023-04-16T16:21:07.798Z,6.85
2023-04-16T16:23:36.169Z,6.53
2023-04-16T16:26:06.131Z,6.38
2023-04-16T16:28:37.592Z,6.65
2023-04-16T16:31:06.093Z,7.50
2023-04-16T16:33:34.207Z,6.90
2023-04-16T16:36:02.318Z,6.45
2023-04-16T16:38:31.793Z,7.40
2023-04-16T16:40:59.765Z,8.05
2023-04-16T16:43:27.857Z,7.53
2023-04-16T16:45:55.878Z,7.03
2023-04-16T16:48:23.927Z,8.00
2023-04-16T16:50:52.024Z,7.53
2023-04-16T16:53:19.952Z,7.85
2023-04-16T16:55:49.247Z,8.40
2023-04-16T16:58:17.247Z,8.40
2023-04-16T17:00:45.177Z,7.32
2023-04-16T17:03:13.519Z,7.88
2023-04-16T17:05:41.723Z,8.30
2023-04-16T17:08:09.718Z,8.77
2023-04-16T17:10:37.823Z,7.82
2023-04-16T17:13:07.093Z,8.23
2023-04-16T17:15:35.078Z,8.32
2023-04-16T17:18:03.195Z,8.63
2023-04-16T17:20:32.537Z,6.65
2023-04-16T17:23:00.484Z,6.82
2023-04-16T17:25:28.598Z,6.47
2023-04-16T17:27:56.586Z,6.22
2023-04-16T17:30:28.119Z,6.43
2023-04-16T17:32:56.329Z,6.75
2023-04-16T17:35:24.755Z,7.10
2023-04-16T17:37:52.769Z,6.78
2023-04-16T17:40:20.693Z,7.30
2023-04-16T17:42:49.931Z,7.22
2023-04-16T17:45:18.037Z,7.00
2023-04-16T17:47:47.380Z,8.30
2023-04-16T17:50:15.444Z,6.60
2023-04-16T17:52:44.442Z,6.82
2023-04-16T17:55:12.921Z,7.22
2023-04-16T17:57:40.995Z,6.85
2023-04-16T18:00:11.386Z,7.22
2023-04-16T18:02:42.724Z,7.40
2023-04-16T18:05:12.953Z,7.13
2023-04-16T18:07:41.258Z,7.15
2023-04-16T18:10:10.763Z,7.25
2023-04-16T18:12:38.855Z,7.40
2023-04-16T18:15:08.196Z,8.10
2023-04-16T18:17:36.422Z,7.03
2023-04-16T18:20:07.248Z,7.18
2023-04-16T18:22:36.667Z,7.68
2023-04-16T18:25:05.310Z,7.25
2023-04-16T18:27:33.542Z,7.72
2023-04-16T18:30:03.994Z,8.40
2023-04-16T18:32:32.794Z,7.07
2023-04-16T18:35:01.791Z,7.00
2023-04-16T18:37:29.872Z,7.68
2023-04-16T18:39:59.276Z,7.85
2023-04-16T18:42:29.379Z,7.75
2023-04-16T18:44:59.308Z,7.75
2023-04-16T18:47:27.692Z,8.02
2023-04-16T18:49:55.718Z,7.95
2023-04-16T18:52:23.821Z,7.63
2023-04-16T18:54:51.783Z,7.28
2023-04-16T18:57:21.130Z,7.57
2023-04-16T18:59:49.177Z,7.65
2023-04-16T19:02:17.269Z,7.63
2023-04-16T19:04:45.232Z,7.40
2023-04-16T19:07:13.105Z,8.90
2023-04-16T19:09:41.116Z,7.50
2023-04-16T19:12:09.136Z,8.48
2023-04-16T19:14:38.547Z,7.53
2023-04-16T19:17:06.540Z,8.05
2023-04-16T19:19:35.627Z,7.82
2023-04-16T19:22:03.631Z,8.10
2023-04-16T19:24:34.159Z,7.97
2023-04-16T19:27:02.662Z,7.35
2023-04-16T19:29:33.973Z,8.07
2023-04-16T19:32:03.724Z,8.13
2023-04-16T19:34:32.110Z,8.13
2023-04-16T19:37:00.270Z,8.40
2023-04-16T19:39:28.699Z,7.85
2023-04-16T19:41:57.760Z,7.72
2023-04-16T19:44:27.598Z,7.75
2023-04-16T19:46:55.645Z,7.68
2023-04-16T19:49:26.069Z,8.25
2023-04-16T19:51:54.760Z,7.70
2023-04-16T19:54:22.731Z,7.95
2023-04-16T19:56:51.738Z,8.30
2023-04-16T19:59:20.540Z,8.30
2023-04-16T20:01:48.525Z,8.00
2023-04-16T20:04:16.403Z,8.27
2023-04-16T20:06:45.698Z,7.78
2023-04-16T20:09:13.793Z,7.82
2023-04-16T20:11:41.686Z,8.18
2023-04-16T20:14:09.655Z,8.45
2023-04-16T20:16:38.811Z,8.63
2023-04-16T20:19:08.724Z,9.55
2023-04-16T20:21:37.036Z,8.25
2023-04-16T20:24:10.543Z,8.43
2023-04-16T20:26:38.487Z,8.73
2023-04-16T20:29:06.294Z,8.40
2023-04-16T20:31:34.228Z,9.20
2023-04-16T20:34:02.127Z,8.68
2023-04-16T20:36:30.272Z,8.88
2023-04-16T20:38:59.426Z,9.18
2023-04-16T20:41:30.155Z,8.52
2023-04-16T20:43:58.116Z,8.82
2023-04-16T20:46:30.300Z,7.85
2023-04-16T20:48:58.268Z,9.35
2023-04-16T20:51:27.604Z,10.00
2023-04-16T20:53:55.580Z,9.57
2023-04-16T20:56:23.479Z,9.88
2023-04-16T20:58:53.752Z,9.15
2023-04-16T21:01:21.789Z,8.88
2023-04-16T21:03:49.846Z,9.32
2023-04-16T21:06:22.513Z,9.35
2023-04-16T21:08:50.429Z,9.85
2023-04-16T21:11:18.342Z,9.20
2023-04-16T21:13:46.208Z,9.73
2023-04-16T21:16:15.641Z,9.50
2023-04-16T21:18:43.624Z,9.68
2023-04-16T21:21:11.574Z,9.73
2023-04-16T21:23:39.650Z,9.10
2023-04-16T21:26:07.531Z,10.18
2023-04-16T21:28:35.582Z,9.73
2023-04-16T21:31:03.528Z,9.90
2023-04-16T21:33:32.777Z,9.82
2023-04-16T21:36:00.702Z,9.55
2023-04-16T21:38:28.679Z,9.75
2023-04-16T21:40:56.938Z,9.45
2023-04-16T21:43:25.101Z,8.90
2023-04-16T21:45:53.416Z,9.13
2023-04-16T21:48:21.418Z,9.52
2023-04-16T21:50:55.732Z,9.40
2023-04-16T21:53:23.653Z,9.02
2023-04-16T21:55:51.568Z,9.70
2023-04-16T21:58:19.465Z,9.50
2023-04-16T22:00:47.398Z,9.32
2023-04-16T22:03:17.432Z,8.85
2023-04-16T22:05:45.943Z,8.55
2023-04-16T22:08:24.149Z,9.27
2023-04-16T22:10:53.016Z,9.20
2023-04-16T22:13:22.781Z,8.05
2023-04-16T22:15:50.673Z,8.52
2023-04-16T22:18:18.634Z,8.55
2023-04-16T22:20:47.206Z,8.98
2023-04-16T22:23:16.425Z,8.77
2023-04-16T22:25:44.541Z,9.38
2023-04-16T22:28:12.648Z,9.07
2023-04-16T22:30:40.799Z,9.38
2023-04-16T22:33:08.724Z,9.52
2023-04-16T22:35:36.753Z,8.50
2023-04-16T22:38:04.737Z,8.68
2023-04-16T22:40:33.985Z,8.80
2023-04-16T22:43:01.904Z,8.90
2023-04-16T22:45:29.853Z,9.32
2023-04-16T22:47:57.863Z,9.77
2023-04-16T22:50:25.787Z,10.48
2023-04-16T22:52:53.761Z,8.95
2023-04-16T22:55:21.741Z,9.30
2023-04-16T22:57:51.034Z,9.88
2023-04-16T23:00:19.580Z,9.65
2023-04-16T23:02:47.642Z,9.35
2023-04-16T23:05:15.833Z,9.98
2023-04-16T23:07:43.756Z,10.32
2023-04-16T23:10:11.946Z,10.18
2023-04-16T23:12:40.174Z,10.70
2023-04-16T23:15:10.208Z,10.02
2023-04-16T23:17:38.257Z,10.25
2023-04-16T23:20:08.685Z,10.70
2023-04-16T23:22:36.758Z,11.65
2023-04-16T23:25:05.008Z,11.55
2023-04-16T23:27:33.369Z,11.07
2023-04-16T23:30:01.254Z,11.75
2023-04-16T23:32:30.491Z,11.57
2023-04-16T23:34:58.647Z,11.38
2023-04-16T23:37:26.718Z,11.35
2023-04-16T23:39:54.699Z,11.63
2023-04-16T23:42:22.649Z,11.38
2023-04-16T23:44:50.636Z,11.02
2023-04-16T23:47:18.586Z,11.23
2023-04-16T23:49:47.908Z,11.25
2023-04-16T23:52:15.806Z,11.13
2023-04-16T23:54:43.766Z,10.32
2023-04-16T23:57:11.692Z,9.90
2023-04-16T23:59:39.680Z,10.13
